NC66 weather

Ventosa Plantation Airport
Scotland Neck, North Carolina, United States

Public forecast

Using degrees Fahrenheit for public forecast. Weather courtesy of forecast.io.

Closest aviation weather report (METAR) to Ventosa Plantation Airport

Closest report is Tri County Airport, 11.7 nm (21.6 km) NNE. Retrieved 2019/12/11 08:35 UTC (0 seconds ago):

KASJ 110835Z AUTO 35005KT 10SM -RA OVC006 08/08 A3017 RMK AO2 P0002 T00830083

Closest aviation forecast (TAF) to Ventosa Plantation Airport

Closest forecast is Pitt Greenville Airport, 30.1 nm (55.8 km) S. Retrieved 2019/12/11 06:39 UTC (2 hours ago):

TAF KPGV 110537Z 1106/1206 34010G15KT 6SM -RA OVC020 FM111000 35010G15KT P6SM VCSH BKN008 OVC010 FM111500 01009G15KT P6SM OVC015 FM111800 35007KT P6SM SCT250 AMD LTD TO CLD VIS AND WIND